createdAt,value
2022-12-25T00:01:08.404Z,94.78
2022-12-25T00:03:37.969Z,94.92
2022-12-25T00:06:08.045Z,95.43
2022-12-25T00:08:37.768Z,94.78
2022-12-25T00:11:07.447Z,94.90
2022-12-25T00:13:35.772Z,95.47
2022-12-25T00:16:07.988Z,94.95
2022-12-25T00:18:36.244Z,94.60
2022-12-25T00:21:08.637Z,94.66
2022-12-25T00:23:36.996Z,94.55
2022-12-25T00:26:07.509Z,95.33
2022-12-25T00:28:36.788Z,94.88
2022-12-25T00:31:09.816Z,95.48
2022-12-25T00:33:39.398Z,95.23
2022-12-25T00:36:11.214Z,95.29
2022-12-25T00:38:41.249Z,94.92
2022-12-25T00:41:12.665Z,95.10
2022-12-25T00:43:41.908Z,95.36
2022-12-25T00:46:12.776Z,95.06
2022-12-25T00:48:41.406Z,95.01
2022-12-25T00:51:13.357Z,95.03
2022-12-25T00:53:41.281Z,95.13
2022-12-25T00:56:09.610Z,95.72
2022-12-25T00:58:37.685Z,95.27
2022-12-25T01:01:05.789Z,95.31
2022-12-25T01:03:33.895Z,95.28
2022-12-25T01:06:04.799Z,95.76
2022-12-25T01:08:37.072Z,95.77
2022-12-25T01:11:07.647Z,95.40
2022-12-25T01:13:38.284Z,95.67
2022-12-25T01:16:07.767Z,95.65
2022-12-25T01:18:35.796Z,95.85
2022-12-25T01:21:07.776Z,95.94
2022-12-25T01:23:37.653Z,95.65
2022-12-25T01:26:06.188Z,96.11
2022-12-25T01:28:34.385Z,96.40
2022-12-25T01:31:02.834Z,96.03
2022-12-25T01:33:31.538Z,95.85
2022-12-25T01:35:59.576Z,96.16
2022-12-25T01:38:27.586Z,96.18
2022-12-25T01:40:56.982Z,96.44
2022-12-25T01:43:28.821Z,95.94
2022-12-25T01:45:57.795Z,96.21
2022-12-25T01:48:31.793Z,96.12
2022-12-25T01:51:05.193Z,96.05
2022-12-25T01:53:34.167Z,96.38
2022-12-25T01:56:09.696Z,95.87
2022-12-25T01:58:38.331Z,95.90
2022-12-25T02:01:06.450Z,96.15
2022-12-25T02:03:35.472Z,96.35
2022-12-25T02:06:05.490Z,95.53
2022-12-25T02:08:34.535Z,95.42
2022-12-25T02:11:03.951Z,95.54
2022-12-25T02:13:32.260Z,95.99
2022-12-25T02:16:10.424Z,96.20
2022-12-25T02:18:47.626Z,96.30
2022-12-25T02:22:01.248Z,95.93
2022-12-25T02:24:54.391Z,95.56
2022-12-25T02:28:11.450Z,96.05
2022-12-25T02:30:47.436Z,95.94
2022-12-25T02:33:41.770Z,95.64
2022-12-25T02:36:23.155Z,95.61
2022-12-25T02:39:17.658Z,95.64
2022-12-25T02:41:50.671Z,95.96
2022-12-25T02:44:41.718Z,95.85
2022-12-25T02:47:29.763Z,95.85
2022-12-25T02:50:18.288Z,96.22
2022-12-25T02:53:06.337Z,95.78
2022-12-25T02:55:58.512Z,95.78
2022-12-25T02:58:46.425Z,96.03
2022-12-25T03:01:38.534Z,95.52
2022-12-25T03:04:32.881Z,95.65
2022-12-25T03:07:11.520Z,95.90
2022-12-25T03:10:03.835Z,95.80
2022-12-25T03:12:45.228Z,96.14
2022-12-25T03:15:32.826Z,96.00
2022-12-25T03:18:06.297Z,95.96
2022-12-25T03:20:53.475Z,95.75
2022-12-25T03:23:50.393Z,95.94
2022-12-25T03:26:36.826Z,96.01
2022-12-25T03:29:05.695Z,96.08
2022-12-25T03:31:48.863Z,96.13
2022-12-25T03:35:00.850Z,96.09
2022-12-25T03:38:12.814Z,95.81
2022-12-25T03:41:15.909Z,95.87
2022-12-25T03:44:12.731Z,96.12
2022-12-25T03:47:06.260Z,96.51
2022-12-25T03:50:04.530Z,96.35
2022-12-25T03:52:54.046Z,96.13
2022-12-25T03:55:54.408Z,96.27
2022-12-25T03:58:43.753Z,96.58
2022-12-25T04:01:29.673Z,96.51
2022-12-25T04:04:15.925Z,96.42
2022-12-25T04:07:01.892Z,96.25
2022-12-25T04:09:51.219Z,96.60
2022-12-25T04:12:36.573Z,96.48
2022-12-25T04:15:28.011Z,96.47
2022-12-25T04:18:13.573Z,96.69
2022-12-25T04:21:01.091Z,96.61
2022-12-25T04:23:46.711Z,96.86
2022-12-25T04:26:33.876Z,96.72
2022-12-25T04:29:19.424Z,96.96
2022-12-25T04:32:05.252Z,96.90
2022-12-25T04:34:50.612Z,96.87
2022-12-25T04:37:18.719Z,96.85
2022-12-25T04:39:46.715Z,96.91
2022-12-25T04:42:17.172Z,96.81
2022-12-25T04:44:45.166Z,96.92
2022-12-25T04:47:14.006Z,97.05
2022-12-25T04:49:41.995Z,96.67
2022-12-25T04:52:09.970Z,96.97
2022-12-25T04:54:39.478Z,96.87
2022-12-25T04:57:07.521Z,97.06
2022-12-25T04:59:37.411Z,97.17
2022-12-25T05:02:05.564Z,96.92
2022-12-25T05:04:33.937Z,97.32
2022-12-25T05:07:02.004Z,96.99
2022-12-25T05:09:30.257Z,97.01
2022-12-25T05:11:58.287Z,97.06
2022-12-25T05:14:26.377Z,96.89
2022-12-25T05:16:55.744Z,96.77
2022-12-25T05:19:23.727Z,96.43
2022-12-25T05:21:51.719Z,96.66
2022-12-25T05:24:19.721Z,96.45
2022-12-25T05:26:48.009Z,96.80
2022-12-25T05:29:15.996Z,96.78
2022-12-25T05:31:44.029Z,96.42
2022-12-25T05:34:13.469Z,96.42
2022-12-25T05:36:41.529Z,96.49
2022-12-25T05:39:09.557Z,96.44
2022-12-25T05:41:37.571Z,96.33
2022-12-25T05:44:05.916Z,96.51
2022-12-25T05:46:33.961Z,96.71
2022-12-25T05:49:02.178Z,96.80
2022-12-25T05:51:31.703Z,96.66
2022-12-25T05:53:59.776Z,96.41
2022-12-25T05:56:28.359Z,96.40
2022-12-25T05:58:56.776Z,96.64
2022-12-25T06:01:29.241Z,96.79
2022-12-25T06:03:58.313Z,96.80
2022-12-25T06:06:26.791Z,97.21
2022-12-25T06:08:56.947Z,97.03
2022-12-25T06:11:24.948Z,97.21
2022-12-25T06:13:54.108Z,96.94
2022-12-25T06:16:22.130Z,96.92
2022-12-25T06:18:52.929Z,97.03
2022-12-25T06:21:21.025Z,96.90
2022-12-25T06:23:49.840Z,96.67
2022-12-25T06:26:21.189Z,96.71
2022-12-25T06:28:49.608Z,96.63
2022-12-25T06:31:21.491Z,96.52
2022-12-25T06:33:50.640Z,96.79
2022-12-25T06:36:22.219Z,96.78
2022-12-25T06:38:50.363Z,96.63
2022-12-25T06:41:22.657Z,96.72
2022-12-25T06:43:52.381Z,96.80
2022-12-25T06:46:21.923Z,96.63
2022-12-25T06:48:50.260Z,96.45
2022-12-25T06:51:19.777Z,96.96
2022-12-25T06:53:48.312Z,96.79
2022-12-25T06:56:20.109Z,96.55
2022-12-25T06:58:50.648Z,97.04
2022-12-25T07:01:22.690Z,97.13
2022-12-25T07:03:54.390Z,96.89
2022-12-25T07:06:22.807Z,96.97
2022-12-25T07:08:51.032Z,96.88
2022-12-25T07:11:21.389Z,96.83
2022-12-25T07:13:49.866Z,96.87
2022-12-25T07:16:18.727Z,96.59
2022-12-25T07:18:46.891Z,96.21
2022-12-25T07:21:18.203Z,96.24
2022-12-25T07:23:49.850Z,96.00
2022-12-25T07:26:18.353Z,96.12
2022-12-25T07:28:47.709Z,96.03
2022-12-25T07:31:18.030Z,95.96
2022-12-25T07:33:46.654Z,95.96
2022-12-25T07:36:16.455Z,96.29
2022-12-25T07:38:45.043Z,96.38
2022-12-25T07:41:13.868Z,96.68
2022-12-25T07:43:42.271Z,96.59
2022-12-25T07:46:12.336Z,96.62
2022-12-25T07:48:40.366Z,96.21
2022-12-25T07:51:12.544Z,96.79
2022-12-25T07:53:41.615Z,96.40
2022-12-25T07:56:14.061Z,96.20
2022-12-25T07:58:42.861Z,96.04
2022-12-25T08:01:17.737Z,96.01
2022-12-25T08:03:50.299Z,96.13
2022-12-25T08:06:19.021Z,95.88
2022-12-25T08:08:47.203Z,96.13
2022-12-25T08:11:15.815Z,96.35
2022-12-25T08:13:43.748Z,96.15
2022-12-25T08:16:13.207Z,96.09
2022-12-25T08:18:43.005Z,95.85
2022-12-25T08:21:14.441Z,96.22
2022-12-25T08:23:45.171Z,95.98
2022-12-25T08:26:18.263Z,96.15
2022-12-25T08:28:47.262Z,96.04
2022-12-25T08:31:19.563Z,95.87
2022-12-25T08:33:49.246Z,95.92
2022-12-25T08:36:18.221Z,95.84
2022-12-25T08:38:46.835Z,95.47
2022-12-25T08:41:16.969Z,94.97
2022-12-25T08:43:45.523Z,94.53
2022-12-25T08:46:13.739Z,95.30
2022-12-25T08:48:45.760Z,95.18
2022-12-25T08:51:16.654Z,95.84
2022-12-25T08:53:46.913Z,95.24
2022-12-25T08:56:16.326Z,95.78
2022-12-25T08:58:44.307Z,95.82
2022-12-25T09:01:14.150Z,95.47
2022-12-25T09:03:44.231Z,94.72
2022-12-25T09:06:16.546Z,95.04
2022-12-25T09:08:49.307Z,94.64
2022-12-25T09:11:20.254Z,94.94
2022-12-25T09:13:48.885Z,94.61
2022-12-25T09:16:20.208Z,94.79
2022-12-25T09:18:51.018Z,94.94
2022-12-25T09:21:20.207Z,94.79
2022-12-25T09:23:48.257Z,94.90
2022-12-25T09:26:19.428Z,95.27
2022-12-25T09:28:51.791Z,95.69
2022-12-25T09:31:21.458Z,95.40
2022-12-25T09:33:51.812Z,95.31
2022-12-25T09:36:21.307Z,95.26
2022-12-25T09:38:49.405Z,95.59
2022-12-25T09:41:28.194Z,95.29
2022-12-25T09:44:04.587Z,95.57
2022-12-25T09:46:43.231Z,95.25
2022-12-25T09:49:22.884Z,95.42
2022-12-25T09:52:00.358Z,95.11
2022-12-25T09:54:43.476Z,94.50
2022-12-25T09:57:14.021Z,94.91
2022-12-25T09:59:44.601Z,94.58
2022-12-25T10:02:55.160Z,94.80
2022-12-25T10:05:58.327Z,94.97
2022-12-25T10:08:56.827Z,94.59
2022-12-25T10:11:47.343Z,94.74
2022-12-25T10:14:27.662Z,94.07
2022-12-25T10:17:23.160Z,94.02
2022-12-25T10:20:05.469Z,93.82
2022-12-25T10:22:41.692Z,94.06
2022-12-25T10:25:19.491Z,93.81
2022-12-25T10:27:53.826Z,93.36
2022-12-25T10:30:25.880Z,94.19
2022-12-25T10:32:57.490Z,92.95
2022-12-25T10:35:29.695Z,92.92
2022-12-25T10:38:04.011Z,93.27
2022-12-25T10:40:47.991Z,93.77
2022-12-25T10:43:28.005Z,93.91
2022-12-25T10:45:56.008Z,93.72
2022-12-25T10:48:28.245Z,92.93
2022-12-25T10:50:57.664Z,93.08
2022-12-25T10:53:30.657Z,93.14
2022-12-25T10:56:02.015Z,93.49
2022-12-25T10:58:33.035Z,93.53
2022-12-25T11:01:03.849Z,93.64
2022-12-25T11:03:35.811Z,93.96
2022-12-25T11:06:05.121Z,93.82
2022-12-25T11:08:36.153Z,93.07
2022-12-25T11:11:07.189Z,93.16
2022-12-25T11:13:40.551Z,92.85
2022-12-25T11:16:14.223Z,93.08
2022-12-25T11:18:49.040Z,92.96
2022-12-25T11:21:19.809Z,92.92
2022-12-25T11:23:56.637Z,92.73
2022-12-25T11:26:25.242Z,92.81
2022-12-25T11:28:56.757Z,93.15
2022-12-25T11:31:37.543Z,92.15
2022-12-25T11:34:14.952Z,92.85
2022-12-25T11:36:48.647Z,93.00
2022-12-25T11:39:26.405Z,93.28
2022-12-25T11:42:02.584Z,92.66
2022-12-25T11:44:44.640Z,92.84
2022-12-25T11:47:22.944Z,91.75
2022-12-25T11:50:00.545Z,91.01
2022-12-25T11:52:35.965Z,91.65
2022-12-25T11:55:17.753Z,90.89
2022-12-25T11:57:52.571Z,91.36
2022-12-25T12:00:21.668Z,91.93
2022-12-25T12:02:59.142Z,92.78
2022-12-25T12:05:38.479Z,92.07
2022-12-25T12:08:10.668Z,92.73
2022-12-25T12:10:58.329Z,92.33
2022-12-25T12:13:44.005Z,92.29
2022-12-25T12:16:12.602Z,92.64
2022-12-25T12:18:46.581Z,93.06
2022-12-25T12:21:24.172Z,92.42
2022-12-25T12:23:58.405Z,92.38
2022-12-25T12:26:31.438Z,92.39
2022-12-25T12:29:03.166Z,92.28
2022-12-25T12:31:42.712Z,92.17
2022-12-25T12:34:25.094Z,92.47
2022-12-25T12:37:02.268Z,92.65
2022-12-25T12:39:38.412Z,92.58
2022-12-25T12:42:18.018Z,92.20
2022-12-25T12:44:47.312Z,91.81
2022-12-25T12:47:34.085Z,91.30
2022-12-25T12:50:03.126Z,91.84
2022-12-25T12:52:38.174Z,92.21
2022-12-25T12:55:12.984Z,91.83
2022-12-25T12:57:42.871Z,92.66
2022-12-25T13:00:18.628Z,91.63
2022-12-25T13:03:23.990Z,91.93
2022-12-25T13:05:59.810Z,92.15
2022-12-25T13:08:48.257Z,92.37
2022-12-25T13:11:22.131Z,92.70
2022-12-25T13:13:55.000Z,92.82
2022-12-25T13:16:30.988Z,91.79
2022-12-25T13:19:01.518Z,92.23
2022-12-25T13:21:31.589Z,92.25
2022-12-25T13:24:02.639Z,92.53
2022-12-25T13:26:31.826Z,92.32
2022-12-25T13:29:02.960Z,92.28
2022-12-25T13:31:35.309Z,92.67
2022-12-25T13:34:07.857Z,92.83
2022-12-25T13:36:40.440Z,92.48
2022-12-25T13:39:10.563Z,92.12
2022-12-25T13:42:04.557Z,92.63
2022-12-25T13:44:49.362Z,92.37
2022-12-25T13:47:22.372Z,93.03
2022-12-25T13:49:52.944Z,92.87
2022-12-25T13:52:25.561Z,92.60
2022-12-25T13:55:02.458Z,93.19
2022-12-25T13:57:35.608Z,93.11
2022-12-25T14:00:08.488Z,92.68
2022-12-25T14:02:39.229Z,92.64
2022-12-25T14:05:26.768Z,93.20
2022-12-25T14:07:56.365Z,92.89
2022-12-25T14:10:28.408Z,92.78
2022-12-25T14:13:00.889Z,93.43
2022-12-25T14:15:34.143Z,92.96
2022-12-25T14:18:02.821Z,93.12
2022-12-25T14:20:35.936Z,92.84
2022-12-25T14:23:05.927Z,92.62
2022-12-25T14:25:42.776Z,92.65
2022-12-25T14:28:22.748Z,93.11
2022-12-25T14:30:52.743Z,93.10
2022-12-25T14:33:25.125Z,92.75
2022-12-25T14:35:54.320Z,93.13
2022-12-25T14:38:27.425Z,93.35
2022-12-25T14:41:03.901Z,93.09
2022-12-25T14:43:34.526Z,92.59
2022-12-25T14:46:07.284Z,93.03
2022-12-25T14:48:35.615Z,93.61
2022-12-25T14:51:08.731Z,93.02
2022-12-25T14:53:41.189Z,93.45
2022-12-25T14:56:11.154Z,93.20
2022-12-25T14:58:47.952Z,93.60
2022-12-25T15:01:27.750Z,93.90
2022-12-25T15:04:08.117Z,93.48
2022-12-25T15:06:36.632Z,93.90
2022-12-25T15:09:07.673Z,93.47
2022-12-25T15:11:35.720Z,93.56
2022-12-25T15:14:03.755Z,94.01
2022-12-25T15:16:42.482Z,93.21
2022-12-25T15:19:24.897Z,93.89
2022-12-25T15:21:54.106Z,93.91
2022-12-25T15:24:22.127Z,93.58
2022-12-25T15:26:52.065Z,93.96
2022-12-25T15:29:38.174Z,93.23
2022-12-25T15:32:18.761Z,93.31
2022-12-25T15:34:49.735Z,93.33
2022-12-25T15:37:19.418Z,93.09
2022-12-25T15:39:47.973Z,93.30
2022-12-25T15:42:19.351Z,92.89
2022-12-25T15:44:47.563Z,93.10
2022-12-25T15:47:19.975Z,93.28
2022-12-25T15:49:48.950Z,93.13
2022-12-25T15:52:18.740Z,92.97
2022-12-25T15:54:46.893Z,93.61
2022-12-25T15:57:21.699Z,93.13
2022-12-25T15:59:49.910Z,92.98
2022-12-25T16:02:21.893Z,93.01
2022-12-25T16:04:51.159Z,93.07
2022-12-25T16:07:23.488Z,93.37
2022-12-25T16:09:52.321Z,93.04
2022-12-25T16:12:21.220Z,93.14
2022-12-25T16:14:49.218Z,92.83
2022-12-25T16:17:17.223Z,93.12
2022-12-25T16:19:46.591Z,92.87
2022-12-25T16:22:15.692Z,93.18
2022-12-25T16:24:43.702Z,93.39
2022-12-25T16:27:11.734Z,93.42
2022-12-25T16:29:39.759Z,93.43
2022-12-25T16:32:07.814Z,93.47
2022-12-25T16:34:35.822Z,93.62
2022-12-25T16:37:05.976Z,93.21
2022-12-25T16:39:34.307Z,93.18
2022-12-25T16:42:02.434Z,93.08
2022-12-25T16:44:30.439Z,93.17
2022-12-25T16:46:58.592Z,93.52
2022-12-25T16:49:26.547Z,93.63
2022-12-25T16:51:54.453Z,93.56
2022-12-25T16:54:23.761Z,93.13
2022-12-25T16:56:51.819Z,93.88
2022-12-25T16:59:19.767Z,93.80
2022-12-25T17:01:47.773Z,93.90
2022-12-25T17:04:15.769Z,94.15
2022-12-25T17:06:43.707Z,94.00
2022-12-25T17:09:11.988Z,94.28
2022-12-25T17:11:41.463Z,94.37
2022-12-25T17:14:11.106Z,94.31
2022-12-25T17:16:40.518Z,94.67
2022-12-25T17:19:23.714Z,94.43
2022-12-25T17:21:54.719Z,94.73
2022-12-25T17:24:23.293Z,94.33
2022-12-25T17:26:52.737Z,94.19
2022-12-25T17:29:22.600Z,94.85
2022-12-25T17:31:51.050Z,94.42
2022-12-25T17:34:20.053Z,94.41
2022-12-25T17:36:48.176Z,94.49
2022-12-25T17:39:16.541Z,95.22
2022-12-25T17:41:44.579Z,95.23
2022-12-25T17:44:13.996Z,94.72
2022-12-25T17:46:42.176Z,94.93
2022-12-25T17:49:17.864Z,95.96
2022-12-25T17:51:46.856Z,96.86
2022-12-25T17:54:15.757Z,96.89
2022-12-25T17:56:43.753Z,96.86
2022-12-25T17:59:18.375Z,96.65
2022-12-25T18:01:49.106Z,96.78
2022-12-25T18:04:17.510Z,96.51
2022-12-25T18:06:45.587Z,96.65
2022-12-25T18:09:14.620Z,96.45
2022-12-25T18:11:44.663Z,96.51
2022-12-25T18:14:17.182Z,96.58
2022-12-25T18:16:47.569Z,96.46
2022-12-25T18:19:18.387Z,96.33
2022-12-25T18:21:46.468Z,96.45
2022-12-25T18:24:14.415Z,96.26
2022-12-25T18:26:42.462Z,96.02
2022-12-25T18:29:10.459Z,96.58
2022-12-25T18:31:39.946Z,96.32
2022-12-25T18:34:07.946Z,96.52
2022-12-25T18:36:36.887Z,96.51
2022-12-25T18:39:05.395Z,96.79
2022-12-25T18:41:53.357Z,97.13
2022-12-25T18:44:21.376Z,97.25
2022-12-25T18:46:50.751Z,97.19
2022-12-25T18:49:18.731Z,97.53
2022-12-25T18:51:46.771Z,97.50
2022-12-25T18:54:14.773Z,96.90
2022-12-25T18:56:42.808Z,96.94
2022-12-25T18:59:10.802Z,97.11
2022-12-25T19:01:38.892Z,96.68
2022-12-25T19:04:12.540Z,96.60
2022-12-25T19:06:40.935Z,96.20
2022-12-25T19:09:09.670Z,96.51
2022-12-25T19:11:44.030Z,96.85
2022-12-25T19:14:14.699Z,96.37
2022-12-25T19:16:42.738Z,96.40
2022-12-25T19:19:13.075Z,96.75
2022-12-25T19:21:41.095Z,97.00
2022-12-25T19:24:09.224Z,96.89
2022-12-25T19:26:37.668Z,96.07
2022-12-25T19:29:05.806Z,96.32
2022-12-25T19:31:33.875Z,96.08
2022-12-25T19:34:02.110Z,95.98
2022-12-25T19:36:32.441Z,95.65
2022-12-25T19:39:00.409Z,95.58
2022-12-25T19:41:28.477Z,95.83
2022-12-25T19:43:56.507Z,95.70
2022-12-25T19:46:28.801Z,96.15
2022-12-25T19:48:57.612Z,96.00
2022-12-25T19:51:29.112Z,95.98
2022-12-25T19:53:58.557Z,95.38
2022-12-25T19:56:28.666Z,95.41
2022-12-25T19:58:58.213Z,95.32
2022-12-25T20:01:30.646Z,96.00
2022-12-25T20:03:59.138Z,95.95
2022-12-25T20:06:30.875Z,95.68
2022-12-25T20:09:03.752Z,95.56
2022-12-25T20:11:34.952Z,95.70
2022-12-25T20:14:03.463Z,95.45
2022-12-25T20:16:31.721Z,95.56
2022-12-25T20:19:00.578Z,95.44
2022-12-25T20:21:29.945Z,95.54
2022-12-25T20:24:00.305Z,95.50
2022-12-25T20:26:32.364Z,95.67
2022-12-25T20:29:00.666Z,95.51
2022-12-25T20:31:31.375Z,95.69
2022-12-25T20:34:04.878Z,95.79
2022-12-25T20:36:37.133Z,96.15
2022-12-25T20:39:10.009Z,95.63
2022-12-25T20:41:38.720Z,95.51
2022-12-25T20:44:08.573Z,95.30
2022-12-25T20:46:36.741Z,95.50
2022-12-25T20:49:05.318Z,95.38
2022-12-25T20:51:33.384Z,95.47
2022-12-25T20:54:01.877Z,95.27
2022-12-25T20:56:31.209Z,95.30
2022-12-25T20:59:01.143Z,95.42
2022-12-25T21:01:31.971Z,95.76
2022-12-25T21:04:00.542Z,95.64
2022-12-25T21:06:28.770Z,95.57
2022-12-25T21:08:56.861Z,95.77
2022-12-25T21:11:25.057Z,95.60
2022-12-25T21:13:54.455Z,95.72
2022-12-25T21:16:23.583Z,95.58
2022-12-25T21:18:54.482Z,95.62
2022-12-25T21:21:23.680Z,95.64
2022-12-25T21:23:52.050Z,95.29
2022-12-25T21:26:23.712Z,95.58
2022-12-25T21:28:57.236Z,95.29
2022-12-25T21:31:25.715Z,94.99
2022-12-25T21:33:54.941Z,95.33
2022-12-25T21:36:27.843Z,95.29
2022-12-25T21:38:58.935Z,95.61
2022-12-25T21:41:29.136Z,95.74
2022-12-25T21:43:59.066Z,95.67
2022-12-25T21:46:28.479Z,95.71
2022-12-25T21:48:57.843Z,95.54
2022-12-25T21:51:46.648Z,95.51
2022-12-25T21:54:16.865Z,95.51
2022-12-25T21:56:47.121Z,95.48
2022-12-25T21:59:20.163Z,95.60
2022-12-25T22:01:49.175Z,96.04
2022-12-25T22:04:19.920Z,95.42
2022-12-25T22:07:06.197Z,95.19
2022-12-25T22:09:35.191Z,95.63
2022-12-25T22:12:21.472Z,95.67
2022-12-25T22:14:56.900Z,95.21
2022-12-25T22:17:45.049Z,95.59
2022-12-25T22:20:16.789Z,95.06
2022-12-25T22:22:45.639Z,95.30
2022-12-25T22:25:15.624Z,95.55
2022-12-25T22:27:46.436Z,95.64
2022-12-25T22:30:19.637Z,95.45
2022-12-25T22:32:48.744Z,95.47
2022-12-25T22:35:18.006Z,95.31
2022-12-25T22:37:46.397Z,95.20
2022-12-25T22:40:18.531Z,95.49
2022-12-25T22:42:46.616Z,95.83
2022-12-25T22:45:16.345Z,95.81
2022-12-25T22:47:44.205Z,95.28
2022-12-25T22:50:14.638Z,95.58
2022-12-25T22:52:45.627Z,95.62
2022-12-25T22:55:18.173Z,95.37
2022-12-25T22:57:46.174Z,95.37
2022-12-25T23:00:15.969Z,95.31
2022-12-25T23:02:43.926Z,95.46
2022-12-25T23:05:12.206Z,95.61
2022-12-25T23:07:40.394Z,95.03
2022-12-25T23:10:11.424Z,94.90
2022-12-25T23:12:56.857Z,94.60
2022-12-25T23:15:27.560Z,94.56
2022-12-25T23:18:13.340Z,94.91
2022-12-25T23:20:58.792Z,94.66
2022-12-25T23:23:44.292Z,94.83
2022-12-25T23:26:13.440Z,95.15
2022-12-25T23:29:00.873Z,95.06
2022-12-25T23:31:37.475Z,94.73
2022-12-25T23:34:07.628Z,93.83
2022-12-25T23:36:36.030Z,93.61
2022-12-25T23:39:10.175Z,94.22
2022-12-25T23:41:39.526Z,94.20
2022-12-25T23:44:07.859Z,94.02
2022-12-25T23:46:37.862Z,93.60
2022-12-25T23:49:06.868Z,94.25
2022-12-25T23:51:36.461Z,93.93
2022-12-25T23:54:05.211Z,93.71
2022-12-25T23:56:33.954Z,93.98
2022-12-25T23:59:02.229Z,93.71
